Time;durP1;ratioP1;P1;durP2;ratioP2;P2;SDS_P1;SDS_P2;PMS_P1;PMS_P2;Temp;Humidity;BMP_temperature;BMP_pressure;BME280_temperature;BME280_humidity;BME280_pressure;Samples;Min_cycle;Max_cycle;Signal;HPM_P1;HPM_P2
2023/08/25 00:00:38;;;;;;;16.13;14.43;;;;;;;18.32;100.00;100934.28;5047286;28;20052;-76
2023/08/25 00:03:04;;;;;;;15.20;13.60;;;;;;;18.27;100.00;100928.66;5032350;28;20061;-77
2023/08/25 00:05:30;;;;;;;17.90;13.15;;;;;;;18.12;100.00;100910.03;5032444;28;20026;-76
2023/08/25 00:07:55;;;;;;;14.20;12.80;;;;;;;18.27;100.00;100942.56;5032482;28;20425;-76
2023/08/25 00:10:22;;;;;;;15.00;13.50;;;;;;;18.10;100.00;100921.59;5032251;28;20034;-77
2023/08/25 00:12:48;;;;;;;16.60;14.25;;;;;;;18.16;100.00;100934.91;5032304;28;20013;-76
2023/08/25 00:15:14;;;;;;;16.27;12.93;;;;;;;18.21;100.00;100939.72;5032778;28;20028;-76
2023/08/25 00:17:39;;;;;;;13.38;12.00;;;;;;;18.14;100.00;100928.16;5032618;28;20026;-76
2023/08/25 00:20:08;;;;;;;13.30;11.98;;;;;;;18.15;100.00;100943.72;5015615;28;20033;-76
2023/08/25 00:22:34;;;;;;;13.60;11.88;;;;;;;18.14;100.00;100943.84;5036456;28;20021;-76
2023/08/25 00:25:00;;;;;;;15.88;14.13;;;;;;;18.13;100.00;100929.97;5036221;28;20531;-76
2023/08/25 00:27:25;;;;;;;17.52;15.70;;;;;;;18.18;100.00;100932.13;5036102;28;20100;-76
2023/08/25 00:29:52;;;;;;;18.40;15.38;;;;;;;18.02;100.00;100919.69;5034408;28;20067;-76
2023/08/25 00:32:18;;;;;;;14.68;13.15;;;;;;;18.00;100.00;100926.84;5036262;28;20179;-76
2023/08/25 00:34:43;;;;;;;14.70;13.23;;;;;;;17.92;100.00;100924.13;5036191;28;20033;-76
2023/08/25 00:37:09;;;;;;;14.57;13.02;;;;;;;17.96;100.00;100944.59;5036362;28;20029;-76
2023/08/25 00:39:34;;;;;;;16.13;14.20;;;;;;;17.82;100.00;100926.75;5036159;28;20033;-77
2023/08/25 00:41:59;;;;;;;14.40;13.00;;;;;;;17.86;100.00;100930.72;5036157;28;20067;-76
2023/08/25 00:44:25;;;;;;;14.85;13.32;;;;;;;17.85;100.00;100941.31;5036006;28;20041;-76
2023/08/25 00:46:50;;;;;;;12.90;11.60;;;;;;;17.74;100.00;100924.03;5035972;28;20364;-76
2023/08/25 00:49:16;;;;;;;11.98;10.85;;;;;;;17.77;100.00;100935.00;5035951;28;20076;-76
2023/08/25 00:51:42;;;;;;;11.93;10.73;;;;;;;17.70;100.00;100933.94;5035961;28;20423;-75
2023/08/25 00:54:07;;;;;;;12.80;11.10;;;;;;;17.61;100.00;100924.28;5035918;28;20489;-76
2023/08/25 00:56:33;;;;;;;11.07;9.85;;;;;;;17.67;100.00;100936.78;5035713;28;20393;-76
2023/08/25 00:58:59;;;;;;;11.40;10.30;;;;;;;17.63;100.00;100926.75;5035549;28;20029;-76
2023/08/25 01:01:24;;;;;;;12.27;11.00;;;;;;;17.56;100.00;100923.88;5035729;28;20107;-76
2023/08/25 01:03:51;;;;;;;12.20;10.55;;;;;;;17.39;100.00;100908.91;5035471;28;20079;-76
2023/08/25 01:06:17;;;;;;;13.85;12.45;;;;;;;17.43;100.00;100912.91;5035883;28;20083;-77
2023/08/25 01:08:43;;;;;;;14.63;13.13;;;;;;;17.48;100.00;100921.94;5035536;28;20065;-78
2023/08/25 01:11:29;;;;;;;15.38;13.88;;;;;;;17.55;100.00;100927.44;5035477;28;20485;-76
2023/08/25 01:14:20;;;;;;;14.07;12.68;;;;;;;17.55;100.00;100924.00;5035540;28;20591;-76
2023/08/25 01:17:08;;;;;;;13.75;12.32;;;;;;;17.48;100.00;100924.56;5035514;28;20112;-76
2023/08/25 01:20:01;;;;;;;20.10;12.80;;;;;;;17.40;100.00;100914.00;5035408;28;20120;-76
2023/08/25 01:22:50;;;;;;;13.95;12.40;;;;;;;17.45;100.00;100919.63;5035320;28;20033;-76
2023/08/25 01:25:26;;;;;;;14.02;12.52;;;;;;;17.38;100.00;100913.31;5035762;28;20052;-76
2023/08/25 01:27:54;;;;;;;13.27;11.48;;;;;;;17.39;100.00;100920.16;5035128;28;20025;-77
2023/08/25 01:30:22;;;;;;;13.45;12.15;;;;;;;17.42;100.00;100909.47;5035037;28;20096;-76
2023/08/25 01:32:48;;;;;;;12.73;11.38;;;;;;;17.37;100.00;100905.63;5034238;28;20492;-76
2023/08/25 01:35:14;;;;;;;12.82;11.63;;;;;;;17.41;100.00;100917.44;5035427;28;20030;-77
2023/08/25 01:37:53;;;;;;;13.38;12.07;;;;;;;17.45;100.00;100903.13;5017432;28;20469;-76
2023/08/25 01:40:28;;;;;;;12.68;11.43;;;;;;;17.55;100.00;100916.19;5035007;28;20091;-76
2023/08/25 01:42:55;;;;;;;12.55;11.45;;;;;;;17.47;100.00;100896.81;5034931;28;20064;-76
2023/08/25 01:45:22;;;;;;;13.38;12.00;;;;;;;17.54;100.00;100901.47;5034660;28;20029;-76
2023/08/25 01:47:50;;;;;;;12.75;11.45;;;;;;;17.66;100.00;100916.03;5034989;28;20033;-76
2023/08/25 01:50:16;;;;;;;12.48;11.27;;;;;;;17.71;100.00;100913.84;5034931;28;20032;-76
2023/08/25 01:52:42;;;;;;;13.73;12.30;;;;;;;17.71;100.00;100906.03;5034958;28;20025;-76
2023/08/25 01:55:08;;;;;;;14.77;13.38;;;;;;;17.71;100.00;100896.41;5034846;28;20029;-77
2023/08/25 01:57:33;;;;;;;13.90;12.48;;;;;;;17.82;100.00;100899.81;5034676;28;20056;-75
2023/08/25 01:59:59;;;;;;;12.93;11.70;;;;;;;17.89;100.00;100906.91;5034421;28;20017;-75
2023/08/25 02:02:24;;;;;;;13.32;12.07;;;;;;;17.90;100.00;100895.53;5016936;28;20144;-76
2023/08/25 02:04:49;;;;;;;13.88;12.57;;;;;;;17.96;100.00;100897.56;5034690;28;20021;-76
2023/08/25 02:07:15;;;;;;;13.75;12.50;;;;;;;18.01;100.00;100895.34;5034631;28;20061;-76
2023/08/25 02:09:41;;;;;;;14.68;13.18;;;;;;;18.05;100.00;100888.84;5034776;28;20045;-76
2023/08/25 02:12:06;;;;;;;14.18;12.75;;;;;;;18.09;100.00;100885.94;5034321;28;20122;-77
2023/08/25 02:14:32;;;;;;;13.85;12.43;;;;;;;18.07;100.00;100883.47;5034235;28;20036;-76
2023/08/25 02:16:57;;;;;;;13.95;12.63;;;;;;;18.13;100.00;100888.16;5034332;28;20057;-76
2023/08/25 02:19:23;;;;;;;13.98;12.52;;;;;;;18.05;100.00;100886.25;5034525;28;20492;-76
2023/08/25 02:21:48;;;;;;;14.00;12.60;;;;;;;18.12;100.00;100885.69;5034137;28;20041;-76
2023/08/25 02:24:13;;;;;;;14.73;13.27;;;;;;;18.12;100.00;100875.22;5034171;28;20448;-76
2023/08/25 02:26:39;;;;;;;14.20;12.80;;;;;;;18.11;100.00;100870.97;5015796;28;20046;-77
2023/08/25 02:29:05;;;;;;;14.65;13.15;;;;;;;18.18;100.00;100880.69;5034008;28;20030;-78
2023/08/25 02:31:31;;;;;;;15.98;14.13;;;;;;;18.18;100.00;100870.22;5033973;28;20044;-75
2023/08/25 02:33:56;;;;;;;16.05;12.82;;;;;;;18.19;100.00;100881.50;5034230;28;20486;-76
2023/08/25 02:36:21;;;;;;;15.18;12.95;;;;;;;18.20;100.00;100870.94;5034143;28;20030;-77
2023/08/25 02:38:47;;;;;;;20.88;16.48;;;;;;;18.23;100.00;100869.81;5034073;28;20021;-75
2023/08/25 02:41:12;;;;;;;16.77;15.07;;;;;;;18.23;100.00;100868.00;5033805;28;20064;-76
2023/08/25 02:43:37;;;;;;;19.25;16.80;;;;;;;18.22;100.00;100858.53;5033716;28;20032;-76
2023/08/25 02:46:03;;;;;;;18.88;16.60;;;;;;;18.25;100.00;100863.47;5016131;28;20413;-76
2023/08/25 02:48:28;;;;;;;19.20;17.17;;;;;;;18.17;100.00;100850.28;5033673;28;20059;-76
2023/08/25 02:50:54;;;;;;;20.05;17.58;;;;;;;18.22;100.00;100844.63;5033745;28;20068;-76
2023/08/25 02:53:19;;;;;;;19.80;17.80;;;;;;;18.16;100.00;100832.13;5033695;28;20426;-76
2023/08/25 02:55:46;;;;;;;16.55;14.85;;;;;;;18.26;100.00;100849.41;5033323;28;20060;-78
2023/08/25 02:58:11;;;;;;;14.48;12.98;;;;;;;18.18;100.00;100828.41;5033431;28;20075;-77
2023/08/25 03:00:36;;;;;;;16.88;15.15;;;;;;;18.16;100.00;100821.69;5033498;28;20385;-77
2023/08/25 03:03:02;;;;;;;15.02;13.13;;;;;;;18.27;100.00;100847.63;5033232;28;20634;-76
2023/08/25 03:05:28;;;;;;;14.60;12.80;;;;;;;18.18;100.00;100827.59;5033528;28;20029;-76
2023/08/25 03:07:53;;;;;;;16.05;12.93;;;;;;;18.20;100.00;100821.28;5033490;28;20116;-76
2023/08/25 03:10:19;;;;;;;17.55;13.95;;;;;;;18.28;100.00;100830.97;5033466;28;20025;-76
2023/08/25 03:12:44;;;;;;;16.15;14.48;;;;;;;18.26;100.00;100831.13;5033245;28;20030;-76
2023/08/25 03:15:09;;;;;;;16.08;13.20;;;;;;;18.18;100.00;100809.28;5033451;28;20033;-75
2023/08/25 03:17:35;;;;;;;14.80;13.27;;;;;;;18.29;100.00;100824.81;5033280;28;20021;-76
2023/08/25 03:20:01;;;;;;;19.27;14.05;;;;;;;18.16;100.00;100801.59;5033290;28;20029;-76
2023/08/25 03:22:26;;;;;;;17.77;15.98;;;;;;;18.32;100.00;100814.84;5033022;28;20473;-77
2023/08/25 03:24:51;;;;;;;17.85;15.77;;;;;;;18.29;100.00;100809.13;5033036;28;20465;-75
2023/08/25 03:27:16;;;;;;;21.40;19.08;;;;;;;18.25;100.00;100799.91;5032879;28;20481;-76
2023/08/25 03:29:42;;;;;;;22.77;19.95;;;;;;;18.33;100.00;100805.22;5033104;28;20033;-76
2023/08/25 03:32:08;;;;;;;23.58;19.92;;;;;;;18.30;100.00;100795.06;5033097;28;20113;-76
2023/08/25 03:34:33;;;;;;;21.42;19.23;;;;;;;18.24;100.00;100775.56;5032986;28;20111;-76
2023/08/25 03:36:58;;;;;;;24.23;21.73;;;;;;;18.38;100.00;100802.16;5033036;28;20022;-76
2023/08/25 03:39:24;;;;;;;23.90;20.95;;;;;;;18.39;100.00;100799.41;5032866;28;20427;-76
2023/08/25 03:41:49;;;;;;;21.83;19.42;;;;;;;18.36;100.00;100797.06;5033057;28;20048;-76
2023/08/25 03:44:15;;;;;;;22.35;19.88;;;;;;;18.39;100.00;100796.81;5032621;28;20358;-80
2023/08/25 03:46:40;;;;;;;21.08;18.80;;;;;;;18.27;100.00;100777.03;5032667;28;20116;-76
2023/08/25 03:49:09;;;;;;;25.77;18.95;;;;;;;18.38;100.00;100792.50;5032582;28;20112;-75
2023/08/25 03:51:35;;;;;;;21.85;19.55;;;;;;;18.21;100.00;100761.97;5032846;28;20110;-76
2023/08/25 03:54:00;;;;;;;22.65;20.35;;;;;;;18.37;100.00;100788.25;5032574;28;20100;-77
2023/08/25 03:56:26;;;;;;;23.15;20.05;;;;;;;18.25;100.00;100760.69;5032555;28;20114;-76
2023/08/25 03:58:51;;;;;;;23.20;20.73;;;;;;;18.38;100.00;100787.28;5032495;28;20468;-76
2023/08/25 04:01:16;;;;;;;23.27;19.45;;;;;;;18.38;100.00;100787.28;5032666;28;20021;-76
2023/08/25 04:03:42;;;;;;;23.00;20.05;;;;;;;18.37;100.00;100787.44;5032389;28;20065;-75
2023/08/25 04:06:07;;;;;;;23.80;19.98;;;;;;;18.37;100.00;100783.03;5032395;28;20030;-76
2023/08/25 04:08:32;;;;;;;23.63;20.05;;;;;;;18.20;100.00;100758.53;5032426;28;20470;-76
2023/08/25 04:10:58;;;;;;;24.20;20.80;;;;;;;18.30;100.00;100777.59;5032707;28;20042;-76
2023/08/25 04:13:23;;;;;;;30.48;22.08;;;;;;;18.30;100.00;100779.38;5032462;28;20034;-76
2023/08/25 04:15:56;;;;;;;25.27;22.30;;;;;;;18.35;100.00;100785.81;5032559;28;20120;-76
2023/08/25 04:18:22;;;;;;;27.48;21.77;;;;;;;18.36;100.00;100786.63;5014567;28;20028;-76
2023/08/25 04:20:48;;;;;;;25.25;22.58;;;;;;;18.29;100.00;100767.28;5032425;28;20116;-77
2023/08/25 04:23:13;;;;;;;27.77;24.08;;;;;;;18.39;100.00;100777.69;5032466;28;20105;-77
2023/08/25 04:25:38;;;;;;;27.35;24.25;;;;;;;18.25;100.00;100756.28;5032508;28;20112;-77
2023/08/25 04:28:04;;;;;;;28.02;24.30;;;;;;;18.36;100.00;100773.53;5032311;28;20112;-77
2023/08/25 04:30:30;;;;;;;27.45;24.27;;;;;;;18.36;100.00;100768.31;5032401;28;20049;-77
2023/08/25 04:32:55;;;;;;;29.95;25.17;;;;;;;18.34;100.00;100772.88;5032186;28;20537;-77
2023/08/25 04:35:20;;;;;;;30.63;26.75;;;;;;;18.29;100.00;100772.50;5032339;28;20026;-78
2023/08/25 04:37:50;;;;;;;30.88;27.50;;;;;;;18.31;100.00;100788.88;5032414;28;20048;-77
2023/08/25 04:40:16;;;;;;;28.10;23.73;;;;;;;18.30;100.00;100787.22;5032580;28;20032;-77
2023/08/25 04:42:42;;;;;;;30.30;25.33;;;;;;;18.22;100.00;100772.28;5032275;28;20076;-77
2023/08/25 04:45:09;;;;;;;27.70;24.70;;;;;;;18.18;100.00;100770.91;5032156;28;20511;-77
2023/08/25 04:47:34;;;;;;;28.38;24.85;;;;;;;18.27;100.00;100779.66;5032022;28;20072;-78
2023/08/25 04:50:02;;;;;;;32.13;27.20;;;;;;;18.14;100.00;100758.28;5014385;28;20384;-77
2023/08/25 04:52:28;;;;;;;30.52;27.17;;;;;;;18.23;100.00;100778.31;5032175;28;20038;-77
2023/08/25 04:54:53;;;;;;;30.50;25.98;;;;;;;18.02;100.00;100755.88;5032225;28;20037;-78
2023/08/25 04:57:19;;;;;;;31.90;26.63;;;;;;;18.20;100.00;100781.25;5032352;28;20029;-77
2023/08/25 04:59:44;;;;;;;35.72;30.13;;;;;;;18.21;100.00;100775.03;5031922;28;20465;-79
2023/08/25 05:02:09;;;;;;;38.63;33.92;;;;;;;18.13;100.00;100762.69;5031834;28;20033;-77
2023/08/25 05:04:35;;;;;;;39.38;33.80;;;;;;;18.24;100.00;100766.91;5032046;28;20389;-78
2023/08/25 05:07:00;;;;;;;38.00;33.28;;;;;;;18.30;100.00;100769.75;5033093;28;20029;-77
2023/08/25 05:09:25;;;;;;;38.40;32.28;;;;;;;18.33;100.00;100755.56;5035446;28;20029;-78
2023/08/25 05:11:51;;;;;;;37.15;32.85;;;;;;;18.33;100.00;100748.53;5035603;28;20073;-79
2023/08/25 05:14:16;;;;;;;36.25;32.33;;;;;;;18.40;100.00;100753.19;5035586;28;20029;-77
2023/08/25 05:16:42;;;;;;;40.08;34.35;;;;;;;18.42;100.00;100752.03;5035418;28;20025;-77
2023/08/25 05:19:09;;;;;;;42.47;35.75;;;;;;;18.43;100.00;100758.91;5035406;28;20431;-77
2023/08/25 05:21:34;;;;;;;43.03;35.22;;;;;;;18.41;100.00;100745.19;5017783;28;20412;-77
2023/08/25 05:24:20;;;;;;;43.30;36.30;;;;;;;18.56;100.00;100746.28;5035800;28;20033;-77
2023/08/25 05:26:52;;;;;;;43.55;37.13;;;;;;;18.59;100.00;100751.22;5035212;28;20083;-78
2023/08/25 05:29:19;;;;;;;44.38;36.72;;;;;;;18.69;100.00;100753.78;5034992;28;20676;-77
2023/08/25 05:31:44;;;;;;;43.38;36.08;;;;;;;18.80;100.00;100760.59;5034957;28;20469;-77
2023/08/25 05:34:10;;;;;;;44.10;35.08;;;;;;;18.86;100.00;100747.69;5016809;28;20044;-80
2023/08/25 05:36:35;;;;;;;41.20;33.72;;;;;;;18.98;100.00;100750.91;5035050;28;20107;-78
2023/08/25 05:39:01;;;;;;;36.97;32.58;;;;;;;19.10;100.00;100768.00;5035010;28;20029;-77
2023/08/25 05:41:27;;;;;;;40.97;33.67;;;;;;;19.24;100.00;100752.69;5035115;28;20029;-77
2023/08/25 05:43:52;;;;;;;35.75;31.88;;;;;;;19.37;100.00;100746.09;5034709;28;20025;-77
2023/08/25 05:46:17;;;;;;;34.55;29.60;;;;;;;19.49;100.00;100752.69;5035048;28;20029;-77
2023/08/25 05:48:43;;;;;;;31.23;27.92;;;;;;;19.63;100.00;100747.88;5034665;28;20037;-78
2023/08/25 05:51:08;;;;;;;31.20;27.08;;;;;;;19.69;100.00;100749.88;5034706;28;20049;-77
2023/08/25 05:53:33;;;;;;;28.00;25.10;;;;;;;19.84;100.00;100750.91;5034738;28;20030;-76
2023/08/25 05:55:59;;;;;;;28.35;24.88;;;;;;;19.85;100.00;100749.09;5034806;28;20029;-75
2023/08/25 05:58:24;;;;;;;25.60;22.90;;;;;;;19.66;100.00;100743.13;5034486;28;20053;-76
2023/08/25 06:00:50;;;;;;;28.27;23.45;;;;;;;19.59;100.00;100751.78;5034414;28;20039;-78
2023/08/25 06:03:16;;;;;;;26.65;23.73;;;;;;;19.49;100.00;100746.63;5031570;28;20065;-83
2023/08/25 06:05:42;;;;;;;27.27;24.50;;;;;;;19.35;100.00;100734.09;5035312;28;20149;-76
2023/08/25 06:08:07;;;;;;;28.02;24.85;;;;;;;19.28;100.00;100725.25;5034666;28;20518;-76
2023/08/25 06:10:33;;;;;;;27.58;24.88;;;;;;;19.11;100.00;100700.78;5034377;28;20025;-76
2023/08/25 06:12:58;;;;;;;28.73;24.33;;;;;;;19.16;100.00;100716.81;5783156;23;19997;-78
2023/08/25 06:15:25;;;;;;;27.58;24.77;;;;;;;19.14;100.00;100724.00;5114286;28;20563;-77
2023/08/25 06:17:54;;;;;;;28.05;25.05;;;;;;;19.11;100.00;100745.28;5114559;28;20582;-77
2023/08/25 06:20:21;;;;;;;27.73;24.60;;;;;;;19.07;100.00;100742.13;5095525;28;20027;-77
2023/08/25 06:28:40;;;;;;;31.25;26.35;;;;;;;18.74;100.00;100727.16;6036764;22;20777;-76
2023/08/25 06:31:08;;;;;;;28.67;25.58;;;;;;;18.83;100.00;100761.09;5114577;28;20486;-80
2023/08/25 06:33:33;;;;;;;30.10;26.73;;;;;;;18.85;100.00;100768.78;5114476;28;20070;-77
2023/08/25 06:35:58;;;;;;;29.73;26.63;;;;;;;18.81;100.00;100751.75;5114631;28;20051;-80
2023/08/25 06:38:23;;;;;;;30.08;26.95;;;;;;;18.79;100.00;100744.06;5114495;28;20066;-76
2023/08/25 06:40:50;;;;;;;29.80;26.60;;;;;;;18.74;100.00;100730.59;5114408;28;20027;-76
2023/08/25 06:43:16;;;;;;;31.08;26.27;;;;;;;18.69;100.00;100742.50;5114342;28;20023;-77
2023/08/25 06:45:41;;;;;;;30.35;27.00;;;;;;;18.68;100.00;100740.84;5114093;28;20080;-81
2023/08/25 06:48:07;;;;;;;30.08;26.83;;;;;;;18.69;100.00;100747.75;5114144;28;20121;-77
2023/08/25 06:50:32;;;;;;;31.77;28.45;;;;;;;18.58;100.00;100760.06;5114180;28;20034;-76
2023/08/25 06:52:57;;;;;;;34.25;28.60;;;;;;;18.63;100.00;100810.09;5108912;28;20035;-73
2023/08/25 06:55:24;;;;;;;37.90;30.88;;;;;;;18.50;100.00;100786.13;5106751;28;20486;-75
2023/08/25 06:57:49;;;;;;;33.22;27.80;;;;;;;18.42;100.00;100722.47;5110819;28;20034;-74
2023/08/25 07:00:17;;;;;;;37.85;28.98;;;;;;;18.30;100.00;100683.47;5113922;28;20020;-74
2023/08/25 07:02:44;;;;;;;32.80;28.92;;;;;;;18.19;100.00;100657.56;5112804;28;20024;-76
2023/08/25 07:05:10;;;;;;;33.92;30.20;;;;;;;18.23;100.00;100679.81;5113986;28;20371;-75
2023/08/25 07:07:36;;;;;;;37.13;31.38;;;;;;;18.26;100.00;100676.06;5113865;28;20027;-79
2023/08/25 07:10:02;;;;;;;36.75;30.30;;;;;;;17.92;100.00;100613.22;5113883;28;20462;-76
2023/08/25 07:12:27;;;;;;;36.83;31.95;;;;;;;18.24;100.00;100663.16;5113861;28;20020;-76
2023/08/25 07:14:53;;;;;;;39.13;33.25;;;;;;;18.21;100.00;100671.31;5113853;28;20383;-76
2023/08/25 07:17:19;;;;;;;37.17;31.08;;;;;;;18.21;100.00;100680.94;5113520;28;20421;-79
2023/08/25 07:19:45;;;;;;;35.33;31.38;;;;;;;18.20;100.00;100679.31;5113772;28;20055;-82
2023/08/25 07:22:10;;;;;;;34.28;30.27;;;;;;;18.12;100.00;100676.59;5113809;28;20044;-78
2023/08/25 07:24:36;;;;;;;34.17;29.60;;;;;;;18.00;100.00;100674.22;5113696;28;20023;-77
2023/08/25 07:27:01;;;;;;;32.97;28.10;;;;;;;18.11;100.00;100701.91;5113669;28;20069;-76
2023/08/25 07:29:26;;;;;;;34.05;28.98;;;;;;;18.05;100.00;100729.44;5112656;28;20039;-76
2023/08/25 07:31:52;;;;;;;34.15;28.15;;;;;;;17.66;100.00;100676.59;5113299;28;20028;-78
2023/08/25 07:34:18;;;;;;;34.60;30.85;;;;;;;17.67;100.00;100711.34;5113408;28;20090;-78
2023/08/25 07:36:43;;;;;;;36.63;30.63;;;;;;;17.94;100.00;100773.25;5113658;27;20036;-76
2023/08/25 07:39:09;;;;;;;38.65;31.75;;;;;;;17.84;100.00;100755.03;5113362;28;20540;-75
2023/08/25 07:41:34;;;;;;;42.05;32.03;;;;;;;17.33;100.00;100638.84;5113616;28;20035;-77
2023/08/25 07:43:59;;;;;;;35.75;30.52;;;;;;;18.03;100.00;100728.78;5113309;28;20032;-79
2023/08/25 07:46:25;;;;;;;33.65;29.38;;;;;;;18.02;100.00;100719.31;5113135;28;20024;-75
2023/08/25 07:48:50;;;;;;;34.70;29.98;;;;;;;18.04;100.00;100712.13;5113271;28;20024;-75
2023/08/25 07:51:17;;;;;;;32.55;28.90;;;;;;;18.02;100.00;100728.94;5113416;28;20043;-76
2023/08/25 07:53:42;;;;;;;31.63;27.92;;;;;;;18.01;100.00;100737.75;5113336;28;20023;-77
2023/08/25 07:56:08;;;;;;;29.67;26.55;;;;;;;18.11;100.00;100761.22;5111508;28;20019;-77
2023/08/25 07:58:33;;;;;;;28.80;25.70;;;;;;;18.07;100.00;100752.81;5113207;28;20379;-76
2023/08/25 08:00:58;;;;;;;27.48;24.30;;;;;;;17.95;100.00;100731.31;5113118;28;20027;-76
2023/08/25 08:03:24;;;;;;;26.48;23.67;;;;;;;18.26;100.00;100772.78;5113015;28;20049;-77
2023/08/25 08:05:49;;;;;;;24.77;22.02;;;;;;;18.04;100.00;100737.44;5113174;28;20519;-79
2023/08/25 08:08:15;;;;;;;22.73;20.40;;;;;;;18.25;100.00;100758.91;5111859;28;20439;-76
2023/08/25 08:10:40;;;;;;;23.65;20.38;;;;;;;18.47;100.00;100778.56;5113074;28;20431;-83
2023/08/25 08:13:06;;;;;;;22.65;20.00;;;;;;;18.41;100.00;100733.91;5113193;28;20020;-77
2023/08/25 08:15:31;;;;;;;22.38;19.98;;;;;;;18.56;100.00;100735.81;5112953;28;20023;-77
2023/08/25 08:17:58;;;;;;;20.40;18.20;;;;;;;18.95;100.00;100763.47;5112679;28;20038;-77
2023/08/25 08:20:24;;;;;;;20.50;18.30;;;;;;;19.03;100.00;100755.69;5113210;28;20103;-83
2023/08/25 08:22:51;;;;;;;20.35;18.23;;;;;;;18.50;100.00;100680.72;5113133;28;20494;-83
2023/08/25 08:25:16;;;;;;;18.08;16.30;;;;;;;19.03;100.00;100756.50;5111547;28;20031;-78
2023/08/25 08:27:42;;;;;;;18.35;16.48;;;;;;;19.06;100.00;100756.19;5112895;28;20058;-78
2023/08/25 08:30:19;;;;;;;17.40;15.70;;;;;;;18.74;100.00;100690.53;5112727;28;20085;-83
2023/08/25 08:32:44;;;;;;;17.25;15.50;;;;;;;18.61;100.00;100670.00;5112574;28;20111;-83
2023/08/25 08:35:10;;;;;;;17.25;15.50;;;;;;;19.14;100.00;100753.63;5112916;28;20035;-80
2023/08/25 08:37:36;;;;;;;17.48;15.68;;;;;;;19.14;100.00;100729.25;5112723;28;20478;-79
2023/08/25 08:40:05;;;;;;;17.40;14.73;;;;;;;19.07;100.00;100736.88;5112863;28;20039;-78
2023/08/25 08:42:32;;;;;;;18.60;16.70;;;;;;;19.03;100.00;100751.25;5115675;28;20084;-80
2023/08/25 08:45:18;;;;;;;18.60;16.80;;;;;;;18.62;100.00;100722.16;5105788;22;20055;-78
2023/08/25 08:47:45;;;;;;;19.02;17.13;;;;;;;18.51;100.00;100718.94;5095957;28;20075;-79
2023/08/25 08:50:20;;;;;;;19.45;17.13;;;;;;;18.82;100.00;100771.72;5096023;28;20054;-81
2023/08/25 08:52:49;;;;;;;19.63;17.48;;;;;;;18.31;100.00;100692.16;5077304;28;20040;-80
2023/08/25 08:55:15;;;;;;;19.63;17.55;;;;;;;18.21;100.00;100667.88;5096211;28;20103;-79
2023/08/25 08:57:53;;;;;;;20.83;17.80;;;;;;;17.84;100.00;100606.13;5095957;28;20060;-79
2023/08/25 09:00:18;;;;;;;20.60;18.60;;;;;;;18.65;100.00;100749.00;5095893;28;20035;-79
2023/08/25 09:02:58;;;;;;;19.88;17.75;;;;;;;18.10;100.00;100652.44;5101449;22;20511;-82
2023/08/25 09:05:34;;;;;;;19.52;17.60;;;;;;;18.18;100.00;100665.53;5095722;28;20066;-79
2023/08/25 09:08:15;;;;;;;20.02;18.02;;;;;;;18.77;100.00;100755.63;5095678;28;20470;-79
2023/08/25 09:10:46;;;;;;;18.13;16.23;;;;;;;18.78;100.00;100752.03;5077424;28;20352;-79
2023/08/25 09:13:12;;;;;;;17.23;15.52;;;;;;;18.90;100.00;100761.31;5095725;28;20024;-79
2023/08/25 09:15:40;;;;;;;16.50;14.80;;;;;;;18.80;100.00;100742.28;5095489;28;20082;-78
2023/08/25 09:18:07;;;;;;;17.13;14.38;;;;;;;18.04;100.00;100620.69;5095366;28;20024;-78
2023/08/25 09:20:41;;;;;;;16.42;13.73;;;;;;;18.41;100.00;100702.53;5095474;28;20507;-78
2023/08/25 09:23:08;;;;;;;15.68;14.15;;;;;;;18.75;100.00;100799.44;5095261;28;20067;-78
2023/08/25 09:25:42;;;;;;;16.10;14.38;;;;;;;18.63;100.00;100804.88;5075978;28;20024;-79
2023/08/25 09:28:07;;;;;;;21.25;16.02;;;;;;;17.72;100.00;100625.59;5079939;28;20029;-75
2023/08/25 09:30:39;;;;;;;18.88;16.98;;;;;;;18.55;100.00;100752.50;5076198;28;20098;-81
2023/08/25 09:33:07;;;;;;;19.50;17.50;;;;;;;18.60;100.00;100755.47;5094820;28;20475;-74
2023/08/25 09:35:33;;;;;;;21.33;19.08;;;;;;;18.63;100.00;100759.59;5095275;28;20059;-78
2023/08/25 09:37:59;;;;;;;20.70;18.35;;;;;;;18.63;100.00;100738.66;5095045;28;20056;-76
2023/08/25 09:40:27;;;;;;;20.23;18.20;;;;;;;18.79;100.00;100751.09;5095338;28;20028;-75
2023/08/25 09:42:58;;;;;;;19.52;17.63;;;;;;;18.72;100.00;100736.97;5094179;28;20494;-77
2023/08/25 09:45:26;;;;;;;20.48;18.42;;;;;;;18.92;100.00;100743.66;5095171;28;20024;-78
2023/08/25 09:47:52;;;;;;;20.55;18.65;;;;;;;19.01;100.00;100729.66;5094930;28;20122;-77
2023/08/25 09:50:19;;;;;;;20.65;18.55;;;;;;;19.18;100.00;100717.50;5094670;28;20353;-79
2023/08/25 09:52:47;;;;;;;20.98;18.98;;;;;;;19.83;100.00;100735.34;5094532;28;20035;-77
2023/08/25 09:55:14;;;;;;;19.75;17.75;;;;;;;20.31;100.00;100764.28;5095081;28;20024;-79
2023/08/25 09:57:43;;;;;;;18.55;16.80;;;;;;;20.73;100.00;100757.31;5095154;28;20391;-82
2023/08/25 10:00:14;;;;;;;17.92;16.27;;;;;;;21.12;100.00;100767.94;5094663;28;20149;-80
2023/08/25 10:02:40;;;;;;;17.27;15.65;;;;;;;21.40;100.00;100766.59;5077021;28;20044;-79
2023/08/25 10:05:08;;;;;;;14.50;13.20;;;;;;;21.58;100.00;100749.81;5094684;28;20073;-85
2023/08/25 10:07:40;;;;;;;15.02;13.52;;;;;;;22.05;100.00;100776.06;5093582;28;20024;-80
2023/08/25 10:10:06;;;;;;;13.52;12.30;;;;;;;22.19;100.00;100730.63;5095370;28;20058;-82
2023/08/25 10:12:34;;;;;;;13.43;12.10;;;;;;;22.49;100.00;100739.44;5094603;28;20023;-81
2023/08/25 10:15:03;;;;;;;12.02;11.02;;;;;;;22.94;100.00;100761.50;5094473;28;20024;-77
2023/08/25 10:17:30;;;;;;;13.40;11.48;;;;;;;22.79;100.00;100731.63;5094355;28;20020;-84
2023/08/25 10:20:00;;;;;;;12.52;11.35;;;;;;;22.49;100.00;100696.53;5094341;28;20039;-80
2023/08/25 10:22:26;;;;;;;12.68;11.48;;;;;;;22.47;100.00;100701.16;5094625;28;20475;-83
2023/08/25 10:25:00;;;;;;;12.10;10.90;;;;;;;22.05;100.00;100666.44;5094226;28;20028;-85
2023/08/25 10:27:27;;;;;;;11.68;10.60;;;;;;;22.79;100.00;100792.19;5094303;28;20047;-86
2023/08/25 10:29:53;;;;;;;13.00;11.73;;;;;;;22.97;100.00;100791.91;5075548;28;20032;-89
2023/08/25 10:32:19;;;;;;;12.23;11.02;;;;;;;22.90;100.00;100771.53;5094391;28;20051;-79
2023/08/25 10:34:46;;;;;;;12.68;11.48;;;;;;;22.98;100.00;100761.94;5094036;28;20028;-79
2023/08/25 10:37:13;;;;;;;13.02;11.73;;;;;;;23.31;100.00;100778.28;5094239;28;20039;-81
2023/08/25 10:39:46;;;;;;;13.10;11.80;;;;;;;23.38;100.00;100787.88;5093853;28;20383;-76
2023/08/25 10:42:11;;;;;;;14.23;12.93;;;;;;;23.16;100.00;100779.06;5094061;28;20031;-79
2023/08/25 10:44:41;;;;;;;14.15;12.75;;;;;;;22.91;100.00;100777.66;5063625;28;20479;-80
2023/08/25 10:47:08;;;;;;;14.32;13.02;;;;;;;22.57;100.00;100760.44;5073609;28;20024;-78
2023/08/25 10:49:40;;;;;;;15.65;14.25;;;;;;;22.29;100.00;100762.78;5073560;28;20024;-78
2023/08/25 10:52:13;;;;;;;15.85;14.45;;;;;;;22.22;100.00;100788.16;5073422;28;20413;-83
2023/08/25 10:54:41;;;;;;;15.63;14.18;;;;;;;21.97;100.00;100797.94;5073569;28;20052;-79
2023/08/25 10:57:25;;;;;;;14.27;12.77;;;;;;;21.60;100.00;100780.19;5073607;28;20048;-81
2023/08/25 10:59:54;;;;;;;14.93;13.57;;;;;;;21.48;100.00;100787.59;5073475;28;20029;-79
2023/08/25 11:02:38;;;;;;;17.42;15.77;;;;;;;21.44;100.00;100772.38;5073100;28;20045;-79
2023/08/25 11:05:34;;;;;;;15.68;14.30;;;;;;;21.56;100.00;100778.06;5072171;28;20028;-82
2023/08/25 11:08:04;;;;;;;16.05;14.52;;;;;;;21.55;100.00;100748.34;5073138;28;20029;-79